createdAt,value
2022-09-18T00:01:00.387Z,9.50
2022-09-18T00:03:28.414Z,9.40
2022-09-18T00:05:55.009Z,9.40
2022-09-18T00:08:21.646Z,9.40
2022-09-18T00:10:48.249Z,9.40
2022-09-18T00:13:15.277Z,9.40
2022-09-18T00:15:42.229Z,9.40
2022-09-18T00:18:09.436Z,9.50
2022-09-18T00:20:37.228Z,9.40
2022-09-18T00:23:04.218Z,9.50
2022-09-18T00:25:32.176Z,9.50
2022-09-18T00:27:58.810Z,9.50
2022-09-18T00:30:25.354Z,9.50
2022-09-18T00:32:51.916Z,9.50
2022-09-18T00:35:18.503Z,9.50
2022-09-18T00:37:45.089Z,9.40
2022-09-18T00:42:38.714Z,9.50
2022-09-18T00:45:05.693Z,9.40
2022-09-18T00:47:46.182Z,9.40
2022-09-18T00:50:18.036Z,9.40
2022-09-18T00:53:01.940Z,9.40
2022-09-18T00:55:35.434Z,9.40
2022-09-18T00:58:03.192Z,9.40
2022-09-18T01:00:31.391Z,9.40
2022-09-18T01:02:59.342Z,9.40
2022-09-18T01:05:42.888Z,9.40
2022-09-18T01:08:33.243Z,9.40
2022-09-18T01:11:10.819Z,9.40
2022-09-18T01:13:44.495Z,9.40
2022-09-18T01:16:27.640Z,9.40
2022-09-18T01:19:15.696Z,9.50
2022-09-18T01:24:39.130Z,9.50
2022-09-18T01:27:41.754Z,9.40
2022-09-18T01:30:11.176Z,9.40
2022-09-18T01:32:57.307Z,9.30
2022-09-18T01:35:41.713Z,9.40
2022-09-18T01:38:23.372Z,9.40
2022-09-18T01:41:00.996Z,9.30
2022-09-18T01:43:31.134Z,9.30
2022-09-18T01:46:03.846Z,9.30
2022-09-18T01:48:38.555Z,9.30
2022-09-18T01:51:22.418Z,9.20
2022-09-18T01:53:58.027Z,9.20
2022-09-18T01:56:31.004Z,9.20
2022-09-18T01:59:02.236Z,9.20
2022-09-18T02:01:32.073Z,9.20
2022-09-18T02:04:07.993Z,9.10
2022-09-18T02:06:38.446Z,9.10
2022-09-18T02:09:06.155Z,9.00
2022-09-18T02:11:34.228Z,9.10
2022-09-18T02:14:22.662Z,9.10
2022-09-18T02:16:57.639Z,9.10
2022-09-18T02:19:42.881Z,9.10
2022-09-18T02:22:13.609Z,9.10
2022-09-18T02:24:44.028Z,9.10
2022-09-18T02:27:13.147Z,9.10
2022-09-18T02:29:43.776Z,9.10
2022-09-18T02:32:11.085Z,9.10
2022-09-18T02:34:37.752Z,9.10
2022-09-18T02:37:15.864Z,9.10
2022-09-18T02:40:01.798Z,9.00
2022-09-18T02:43:08.397Z,9.00
2022-09-18T02:45:55.362Z,9.00
2022-09-18T02:48:49.785Z,9.00
2022-09-18T02:51:34.781Z,9.00
2022-09-18T02:54:26.806Z,9.00
2022-09-18T02:56:58.772Z,9.10
2022-09-18T02:59:36.717Z,9.10
2022-09-18T03:02:04.172Z,9.10
2022-09-18T03:04:30.862Z,9.00
2022-09-18T03:06:57.571Z,9.00
2022-09-18T03:09:24.698Z,9.00
2022-09-18T03:11:51.706Z,9.00
2022-09-18T03:14:18.257Z,8.90
2022-09-18T03:16:44.823Z,8.90
2022-09-18T03:19:14.232Z,9.00
2022-09-18T03:21:41.402Z,9.00
2022-09-18T03:24:08.012Z,9.10
2022-09-18T03:26:34.541Z,9.10
2022-09-18T03:29:01.112Z,9.10
2022-09-18T03:31:27.720Z,9.10
2022-09-18T03:33:54.365Z,9.10
2022-09-18T03:36:20.873Z,9.10
2022-09-18T03:38:47.407Z,9.10
2022-09-18T03:41:13.977Z,9.20
2022-09-18T03:43:40.516Z,9.10
2022-09-18T03:46:07.105Z,9.10
2022-09-18T03:48:33.662Z,9.10
2022-09-18T03:51:01.077Z,9.10
2022-09-18T03:53:27.706Z,9.20
2022-09-18T03:55:54.273Z,9.20
2022-09-18T03:58:20.871Z,9.20
2022-09-18T04:00:47.529Z,9.20
2022-09-18T04:03:14.297Z,9.20
2022-09-18T04:05:40.991Z,9.20
2022-09-18T04:08:07.950Z,9.20
2022-09-18T04:10:34.579Z,9.20
2022-09-18T04:13:01.755Z,9.20
2022-09-18T04:15:28.332Z,9.20
2022-09-18T04:17:55.260Z,9.20
2022-09-18T04:20:21.883Z,9.20
2022-09-18T04:22:48.419Z,9.20
2022-09-18T04:25:15.232Z,9.20
2022-09-18T04:27:42.157Z,9.20
2022-09-18T04:30:09.580Z,9.20
2022-09-18T04:32:36.101Z,9.20
2022-09-18T04:35:02.658Z,9.20
2022-09-18T04:37:29.190Z,9.20
2022-09-18T04:39:55.785Z,9.20
2022-09-18T04:42:22.774Z,9.20
2022-09-18T04:44:49.383Z,9.20
2022-09-18T04:47:16.332Z,9.20
2022-09-18T04:49:42.931Z,9.20
2022-09-18T04:52:09.477Z,9.20
2022-09-18T04:54:36.029Z,9.20
2022-09-18T04:57:02.551Z,9.20
2022-09-18T04:59:29.217Z,9.20
2022-09-18T05:01:55.793Z,9.20
2022-09-18T05:04:22.412Z,9.20
2022-09-18T05:06:48.997Z,9.20
2022-09-18T05:09:15.532Z,9.20
2022-09-18T05:11:42.080Z,9.30
2022-09-18T05:14:08.669Z,9.20
2022-09-18T05:16:35.222Z,9.20
2022-09-18T05:19:01.966Z,9.20
2022-09-18T05:21:30.626Z,9.20
2022-09-18T05:23:57.130Z,9.20
2022-09-18T05:26:23.729Z,9.30
2022-09-18T05:28:50.740Z,9.20
2022-09-18T05:31:17.461Z,9.30
2022-09-18T05:33:44.138Z,9.30
2022-09-18T05:36:10.752Z,9.20
2022-09-18T05:38:37.306Z,9.20
2022-09-18T05:41:04.582Z,9.30
2022-09-18T05:43:31.326Z,9.30
2022-09-18T05:45:59.967Z,9.20
2022-09-18T05:48:26.571Z,9.20
2022-09-18T05:50:53.140Z,9.20
2022-09-18T05:53:21.798Z,9.20
2022-09-18T05:55:48.792Z,9.20
2022-09-18T05:58:17.895Z,9.30
2022-09-18T06:00:45.297Z,9.30
2022-09-18T06:03:14.754Z,9.30
2022-09-18T06:05:42.786Z,9.30
2022-09-18T06:08:11.773Z,9.40
2022-09-18T06:10:40.301Z,9.30
2022-09-18T06:13:15.897Z,9.40
2022-09-18T06:15:50.411Z,9.40
2022-09-18T06:18:17.111Z,9.40
2022-09-18T06:20:50.903Z,9.40
2022-09-18T06:23:17.425Z,9.40
2022-09-18T06:25:43.945Z,9.40
2022-09-18T06:28:10.527Z,9.40
2022-09-18T06:30:37.394Z,9.40
2022-09-18T06:33:06.502Z,9.40
2022-09-18T06:35:34.376Z,9.40
2022-09-18T06:38:05.397Z,9.50
2022-09-18T06:40:33.121Z,9.50
2022-09-18T06:43:01.799Z,9.50
2022-09-18T06:45:30.072Z,9.50
2022-09-18T06:48:01.480Z,9.60
2022-09-18T06:50:28.047Z,9.60
2022-09-18T06:52:54.590Z,9.70
2022-09-18T06:55:21.170Z,9.70
2022-09-18T06:57:55.347Z,9.80
2022-09-18T07:00:22.890Z,9.80
2022-09-18T07:03:03.356Z,9.90
2022-09-18T07:05:32.429Z,9.90
2022-09-18T07:07:59.669Z,9.90
2022-09-18T07:10:26.373Z,10.00
2022-09-18T07:12:57.286Z,10.00
2022-09-18T07:15:24.008Z,10.00
2022-09-18T07:17:51.906Z,10.00
2022-09-18T07:20:19.810Z,10.00
2022-09-18T07:22:56.167Z,10.10
2022-09-18T07:25:23.438Z,10.10
2022-09-18T07:27:50.536Z,10.20
2022-09-18T07:30:18.029Z,10.30
2022-09-18T07:32:45.250Z,10.30
2022-09-18T07:35:12.189Z,10.40
2022-09-18T07:37:39.175Z,10.50
2022-09-18T07:40:08.205Z,10.70
2022-09-18T07:42:35.618Z,10.80
2022-09-18T07:45:02.155Z,10.80
2022-09-18T07:47:28.787Z,10.80
2022-09-18T07:49:55.504Z,10.70
2022-09-18T07:52:22.103Z,10.70
2022-09-18T07:54:48.643Z,10.80
2022-09-18T07:57:15.177Z,11.00
2022-09-18T07:59:41.767Z,11.00
2022-09-18T08:02:08.454Z,11.20
2022-09-18T08:04:35.094Z,11.30
2022-09-18T08:07:04.166Z,11.40
2022-09-18T08:09:31.197Z,11.50
2022-09-18T08:11:58.099Z,11.60
2022-09-18T08:14:28.733Z,11.40
2022-09-18T08:16:55.950Z,11.30
2022-09-18T08:19:22.575Z,11.20
2022-09-18T08:21:49.302Z,11.20
2022-09-18T08:24:17.269Z,11.30
2022-09-18T08:26:44.087Z,11.30
2022-09-18T08:29:10.639Z,11.50
2022-09-18T08:31:37.214Z,11.80
2022-09-18T08:34:03.967Z,11.90
2022-09-18T08:36:30.482Z,12.20
2022-09-18T08:38:57.119Z,12.20
2022-09-18T08:41:38.851Z,11.90
2022-09-18T08:44:24.065Z,12.10
2022-09-18T08:47:02.347Z,12.40
2022-09-18T10:04:44.719Z,13.20
2022-09-18T10:07:25.343Z,13.50
2022-09-18T10:10:05.579Z,13.70
2022-09-18T10:12:52.305Z,13.70
2022-09-18T10:15:20.800Z,14.00
2022-09-18T10:17:50.549Z,14.20
2022-09-18T10:20:21.766Z,14.20
2022-09-18T10:22:48.471Z,14.30
2022-09-18T10:25:38.519Z,14.30
2022-09-18T10:28:05.064Z,14.20
2022-09-18T10:30:32.216Z,14.40
2022-09-18T10:32:59.927Z,14.40
2022-09-18T10:35:41.587Z,14.50
2022-09-18T10:38:28.733Z,14.40
2022-09-18T10:40:55.295Z,14.60
2022-09-18T10:43:22.768Z,14.90
2022-09-18T10:45:55.889Z,15.00
2022-09-18T10:48:24.893Z,14.90
2022-09-18T10:50:56.283Z,14.90
2022-09-18T10:53:39.696Z,15.10
2022-09-18T10:56:17.003Z,15.10
2022-09-18T10:58:44.917Z,15.10
2022-09-18T11:01:12.379Z,15.00
2022-09-18T11:04:00.098Z,15.00
2022-09-18T11:06:29.871Z,14.90
2022-09-18T11:08:59.872Z,14.80
2022-09-18T11:11:30.368Z,14.80
2022-09-18T11:14:00.067Z,14.70
2022-09-18T11:16:33.136Z,14.70
2022-09-18T11:21:51.021Z,14.50
2022-09-18T11:24:25.266Z,14.50
2022-09-18T11:26:57.337Z,14.50
2022-09-18T11:32:15.545Z,14.50
2022-09-18T11:34:54.498Z,15.00
2022-09-18T11:37:33.079Z,15.60
2022-09-18T11:40:16.214Z,15.90
2022-09-18T11:47:48.061Z,15.30
2022-09-18T11:50:19.943Z,15.20
2022-09-18T11:52:54.006Z,15.40
2022-09-18T11:55:59.697Z,15.30
2022-09-18T11:58:35.066Z,15.30
2022-09-18T12:01:13.641Z,15.50
2022-09-18T12:04:12.256Z,15.50
2022-09-18T12:06:48.076Z,15.70
2022-09-18T12:12:02.513Z,16.20
2022-09-18T12:14:41.602Z,16.50
2022-09-18T12:17:17.834Z,16.50
2022-09-18T12:19:49.544Z,16.10
2022-09-18T12:22:28.469Z,15.50
2022-09-18T12:27:41.593Z,15.10
2022-09-18T12:30:14.956Z,15.30
2022-09-18T12:33:00.330Z,15.80
2022-09-18T12:35:41.197Z,16.20
2022-09-18T12:38:17.285Z,16.60
2022-09-18T12:41:20.394Z,16.30
2022-09-18T12:44:05.637Z,16.10
2022-09-18T12:49:44.357Z,16.30
2022-09-18T12:52:27.671Z,16.40
2022-09-18T12:55:21.184Z,16.10
2022-09-18T13:00:36.087Z,15.20
2022-09-18T13:03:32.764Z,15.00
2022-09-18T13:06:10.955Z,14.90
2022-09-18T13:08:44.004Z,14.80
2022-09-18T13:11:43.118Z,14.80
2022-09-18T13:14:09.869Z,14.70
2022-09-18T13:16:46.291Z,14.60
2022-09-18T13:19:43.457Z,14.50
2022-09-18T13:22:15.575Z,14.50
2022-09-18T13:24:44.379Z,14.60
2022-09-18T13:27:15.650Z,14.60
2022-09-18T13:29:50.849Z,14.70
2022-09-18T13:32:39.390Z,14.80
2022-09-18T13:38:04.114Z,15.30
2022-09-18T13:40:35.750Z,15.20
2022-09-18T13:43:20.314Z,15.10
2022-09-18T13:45:47.287Z,15.10
2022-09-18T13:50:58.907Z,14.60
2022-09-18T14:01:46.457Z,14.00
2022-09-18T14:04:41.074Z,14.00
2022-09-18T14:07:16.880Z,14.00
2022-09-18T14:09:52.798Z,14.10
2022-09-18T14:12:21.131Z,14.20
2022-09-18T14:15:17.042Z,14.30
2022-09-18T14:18:06.638Z,14.60
2022-09-18T14:20:34.135Z,15.00
2022-09-18T14:23:35.406Z,15.30
2022-09-18T14:26:07.781Z,15.20
2022-09-18T14:28:35.773Z,15.20
2022-09-18T14:36:14.864Z,15.10
2022-09-18T14:38:41.768Z,15.20
2022-09-18T14:41:23.782Z,15.10
2022-09-18T14:44:00.113Z,15.10
2022-09-18T14:46:27.726Z,15.30
2022-09-18T14:48:55.198Z,15.30
2022-09-18T14:51:24.268Z,15.30
2022-09-18T14:53:53.425Z,15.20
2022-09-18T14:56:30.446Z,15.20
2022-09-18T14:59:00.261Z,15.20
2022-09-18T15:01:30.043Z,15.20
2022-09-18T15:03:59.890Z,15.00
2022-09-18T15:06:40.105Z,15.00
2022-09-18T15:09:10.615Z,15.10
2022-09-18T15:11:58.741Z,15.10
2022-09-18T15:14:37.705Z,15.00
2022-09-18T15:17:18.444Z,14.80
2022-09-18T15:19:55.651Z,14.60
2022-09-18T15:22:23.588Z,14.40
2022-09-18T15:24:50.523Z,14.30
2022-09-18T15:27:18.480Z,14.10
2022-09-18T15:30:00.189Z,14.00
2022-09-18T15:32:40.822Z,13.90
2022-09-18T15:35:16.726Z,13.90
2022-09-18T15:37:50.866Z,13.90
2022-09-18T15:40:20.786Z,13.80
2022-09-18T15:43:15.239Z,13.90
2022-09-18T15:46:06.621Z,13.80
2022-09-18T15:48:37.918Z,13.80
2022-09-18T15:51:09.921Z,13.70
2022-09-18T15:53:38.373Z,13.80
2022-09-18T15:56:07.875Z,13.70
2022-09-18T15:58:46.806Z,13.50
2022-09-18T16:01:20.643Z,13.50
2022-09-18T16:03:47.922Z,13.50
2022-09-18T16:06:25.457Z,13.50
2022-09-18T16:08:54.897Z,13.50
2022-09-18T16:11:45.568Z,13.40
2022-09-18T16:14:47.189Z,13.40
2022-09-18T16:17:36.872Z,13.40
2022-09-18T16:20:27.988Z,13.30
2022-09-18T16:23:13.096Z,13.30
2022-09-18T16:25:41.942Z,13.30
2022-09-18T16:28:24.972Z,13.30
2022-09-18T16:30:52.631Z,13.30
2022-09-18T16:33:30.891Z,13.30
2022-09-18T16:36:08.547Z,13.30
2022-09-18T16:38:35.747Z,13.30
2022-09-18T16:41:02.409Z,13.30
2022-09-18T16:43:29.641Z,13.20
2022-09-18T16:45:56.231Z,13.20
2022-09-18T16:48:24.261Z,13.10
2022-09-18T16:50:51.197Z,13.10
2022-09-18T16:53:18.108Z,13.10
2022-09-18T16:55:49.636Z,13.00
2022-09-18T16:58:18.977Z,12.90
2022-09-18T17:00:45.741Z,12.90
2022-09-18T17:03:12.642Z,13.00
2022-09-18T17:05:39.279Z,12.90
2022-09-18T17:08:06.281Z,12.90
2022-09-18T17:10:34.043Z,12.80
2022-09-18T17:13:00.674Z,12.80
2022-09-18T17:15:27.326Z,12.80
2022-09-18T17:17:54.302Z,12.80
2022-09-18T17:20:21.453Z,12.70
2022-09-18T17:22:48.491Z,12.70
2022-09-18T17:25:15.328Z,12.70
2022-09-18T17:27:43.928Z,12.70
2022-09-18T17:30:11.584Z,12.70
2022-09-18T17:32:38.554Z,12.70
2022-09-18T17:35:05.496Z,12.70
2022-09-18T17:37:32.348Z,12.70
2022-09-18T17:40:00.256Z,12.70
2022-09-18T17:42:27.055Z,12.60
2022-09-18T17:44:53.646Z,12.60
2022-09-18T17:47:20.437Z,12.70
2022-09-18T17:49:47.099Z,12.60
2022-09-18T17:52:13.830Z,12.60
2022-09-18T17:54:40.597Z,12.70
2022-09-18T17:57:11.483Z,12.70
2022-09-18T17:59:39.649Z,12.80
2022-09-18T18:02:07.695Z,12.70
2022-09-18T18:04:34.610Z,12.70
2022-09-18T18:07:01.508Z,12.70
2022-09-18T18:09:28.235Z,12.70
2022-09-18T18:11:55.057Z,12.80
2022-09-18T18:14:25.015Z,12.80
2022-09-18T18:16:52.700Z,12.90
2022-09-18T18:19:20.077Z,12.80
2022-09-18T18:21:46.644Z,12.80
2022-09-18T18:24:16.745Z,12.80
2022-09-18T18:26:44.539Z,12.80
2022-09-18T18:29:14.500Z,12.80
2022-09-18T18:31:43.169Z,12.80
2022-09-18T18:34:11.189Z,12.80
2022-09-18T18:36:40.820Z,12.80
2022-09-18T18:39:11.927Z,12.80
2022-09-18T18:41:39.491Z,12.80
2022-09-18T18:44:06.792Z,12.80
2022-09-18T18:46:36.122Z,12.70
2022-09-18T18:49:09.726Z,12.80
2022-09-18T18:51:40.454Z,12.90
2022-09-18T18:54:07.073Z,12.90
2022-09-18T18:56:37.472Z,12.90
2022-09-18T18:59:06.309Z,12.80
2022-09-18T19:01:33.651Z,12.80
2022-09-18T19:04:03.583Z,12.90
2022-09-18T19:06:30.246Z,13.00
2022-09-18T19:08:59.700Z,13.00
2022-09-18T19:11:27.012Z,13.00
2022-09-18T19:13:56.675Z,13.00
2022-09-18T19:16:25.333Z,13.00
2022-09-18T19:19:00.238Z,13.00
2022-09-18T19:21:28.109Z,12.90
2022-09-18T19:23:56.702Z,12.90
2022-09-18T19:26:25.564Z,12.90
2022-09-18T19:28:57.577Z,12.90
2022-09-18T19:31:25.892Z,12.90
2022-09-18T19:33:52.675Z,12.90
2022-09-18T19:36:21.047Z,12.90
2022-09-18T19:38:56.029Z,12.80
2022-09-18T19:41:22.631Z,12.80
2022-09-18T19:43:49.954Z,12.80
2022-09-18T19:46:23.985Z,12.80
2022-09-18T19:48:51.011Z,12.80
2022-09-18T19:51:17.883Z,12.80
2022-09-18T19:56:32.987Z,12.80
2022-09-18T20:03:56.403Z,12.60
2022-09-18T20:06:23.015Z,12.30
2022-09-18T20:08:50.002Z,12.10
2022-09-18T20:11:16.635Z,11.90
2022-09-18T20:13:43.195Z,11.70
2022-09-18T20:16:12.068Z,11.50
2022-09-18T20:18:38.744Z,11.30
2022-09-18T20:21:07.782Z,12.10
2022-09-18T20:23:35.626Z,10.90
2022-09-18T20:26:09.962Z,10.90
2022-09-18T20:28:37.427Z,10.90
2022-09-18T20:31:05.645Z,10.80
2022-09-18T20:33:32.985Z,10.70
2022-09-18T20:36:00.205Z,10.60
2022-09-18T20:38:33.951Z,10.60
2022-09-18T20:41:06.657Z,10.60
2022-09-18T20:43:35.744Z,10.60
2022-09-18T20:46:05.329Z,10.60
2022-09-18T20:48:38.334Z,10.50
2022-09-18T20:51:09.203Z,10.40
2022-09-18T20:53:41.970Z,10.40
2022-09-18T20:56:10.902Z,10.30
2022-09-18T20:58:39.146Z,10.30
2022-09-18T21:01:14.623Z,10.30
2022-09-18T21:03:43.227Z,10.30
2022-09-18T21:06:22.243Z,10.30
2022-09-18T21:08:53.106Z,10.30
2022-09-18T21:11:23.031Z,10.30
2022-09-18T21:13:53.519Z,10.20
2022-09-18T21:16:22.020Z,10.30
2022-09-18T21:18:49.625Z,10.30
2022-09-18T21:21:17.302Z,10.30
2022-09-18T21:23:53.224Z,10.30
2022-09-18T21:26:20.700Z,10.30
2022-09-18T21:28:56.168Z,10.40
2022-09-18T21:31:23.237Z,10.40
2022-09-18T21:33:52.811Z,10.30
2022-09-18T21:36:24.009Z,10.30
2022-09-18T21:38:53.332Z,10.30
2022-09-18T21:41:21.356Z,10.30
2022-09-18T21:43:50.473Z,10.20
2022-09-18T21:46:19.227Z,10.20
2022-09-18T21:48:48.259Z,10.20
2022-09-18T21:51:16.700Z,10.20
2022-09-18T21:53:44.491Z,10.10
2022-09-18T21:56:17.513Z,10.10
2022-09-18T21:58:45.492Z,10.10
2022-09-18T22:01:19.032Z,10.10
2022-09-18T22:03:55.375Z,10.10
2022-09-18T22:06:34.413Z,10.10
2022-09-18T22:09:06.832Z,10.20
2022-09-18T22:11:36.725Z,10.20
2022-09-18T22:14:10.189Z,10.10
2022-09-18T22:16:37.760Z,10.10
2022-09-18T22:19:08.114Z,10.10
2022-09-18T22:21:37.638Z,10.00
2022-09-18T22:24:08.725Z,10.00
2022-09-18T22:26:40.755Z,10.00
2022-09-18T22:29:13.027Z,10.00
2022-09-18T22:31:39.657Z,10.00
2022-09-18T22:34:07.088Z,10.10
2022-09-18T22:36:33.978Z,10.20
2022-09-18T22:39:00.509Z,10.20
2022-09-18T22:41:27.116Z,10.20
2022-09-18T22:43:57.206Z,10.20
2022-09-18T22:46:25.310Z,10.20
2022-09-18T22:48:52.561Z,10.10
2022-09-18T22:51:26.434Z,10.10
2022-09-18T22:53:58.952Z,10.00
2022-09-18T22:56:27.500Z,9.80
2022-09-18T22:58:56.180Z,9.60
2022-09-18T23:01:31.130Z,9.50
2022-09-18T23:03:59.368Z,9.40
2022-09-18T23:06:27.241Z,9.20
2022-09-18T23:08:55.635Z,9.30
2022-09-18T23:11:25.030Z,9.20
2022-09-18T23:13:56.767Z,9.20
2022-09-18T23:16:25.710Z,9.00
2022-09-18T23:18:55.234Z,9.00
2022-09-18T23:21:22.585Z,8.90
2022-09-18T23:23:49.930Z,8.80
2022-09-18T23:26:19.506Z,8.80
2022-09-18T23:28:47.404Z,8.70
2022-09-18T23:31:16.561Z,8.60
2022-09-18T23:33:46.728Z,8.50
2022-09-18T23:36:24.373Z,8.50
2022-09-18T23:39:02.482Z,8.50
2022-09-18T23:41:35.518Z,8.40
2022-09-18T23:44:03.272Z,8.40
2022-09-18T23:46:31.036Z,8.40
2022-09-18T23:48:58.692Z,8.40
2022-09-18T23:51:31.124Z,8.30
2022-09-18T23:54:00.110Z,8.30
2022-09-18T23:56:29.094Z,8.30
2022-09-18T23:58:58.889Z,8.20
